Time;durP1;ratioP1;P1;durP2;ratioP2;P2;SDS_P1;SDS_P2;PMS_P1;PMS_P2;Temp;Humidity;BMP_temperature;BMP_pressure;BME280_temperature;BME280_humidity;BME280_pressure;Samples;Min_cycle;Max_cycle;Signal;HPM_P1;HPM_P2
2022/01/20 00:01:51;;;;;;;8.18;0.82;;;4.60;99.90;;;;;;5051262;28;20057;-75
2022/01/20 00:28:13;;;;;;;8.73;0.82;;;4.10;99.90;;;;;;5070827;28;20411;-75
2022/01/20 00:30:47;;;;;;;11.15;1.02;;;4.10;99.90;;;;;;5071066;28;20083;-75
2022/01/20 00:33:19;;;;;;;9.40;1.45;;;4.10;99.90;;;;;;5070425;28;20047;-75
2022/01/20 00:38:21;;;;;;;14.63;1.92;;;4.10;99.90;;;;;;5068970;28;20488;-75
2022/01/20 00:40:47;;;;;;;11.60;1.92;;;4.10;99.90;;;;;;5070629;28;20045;-75
2022/01/20 00:43:13;;;;;;;9.93;1.20;;;4.10;99.90;;;;;;5070633;28;20044;-75
2022/01/20 00:45:39;;;;;;;11.65;1.83;;;4.10;99.90;;;;;;5070025;28;20041;-75
2022/01/20 00:48:05;;;;;;;15.00;1.30;;;4.10;99.90;;;;;;5070835;28;20051;-75
2022/01/20 00:50:31;;;;;;;10.13;1.65;;;4.20;99.90;;;;;;5070708;28;20045;-75
2022/01/20 00:52:57;;;;;;;16.65;1.92;;;4.20;99.90;;;;;;5070230;28;20044;-75
2022/01/20 00:55:22;;;;;;;15.85;1.60;;;4.20;99.90;;;;;;5070611;28;20402;-75
2022/01/20 00:57:48;;;;;;;16.13;1.73;;;4.20;99.90;;;;;;5070117;28;20066;-75
2022/01/20 01:00:14;;;;;;;11.25;1.88;;;4.30;99.90;;;;;;5070388;28;20558;-75
2022/01/20 01:02:41;;;;;;;8.98;0.93;;;4.30;99.90;;;;;;5070339;28;20517;-75
2022/01/20 01:05:08;;;;;;;10.35;1.45;;;4.30;99.90;;;;;;5070284;28;20041;-76
2022/01/20 01:07:46;;;;;;;7.05;0.90;;;4.30;99.90;;;;;;5069716;28;20410;-75
2022/01/20 01:10:17;;;;;;;8.60;1.17;;;4.30;99.90;;;;;;5069741;28;20051;-76
2022/01/20 01:12:50;;;;;;;8.75;1.33;;;4.30;99.90;;;;;;5070488;28;20248;-75
2022/01/20 01:15:29;;;;;;;;;;;4.20;99.90;;;;;;5070356;28;20056;-75
2022/01/20 01:23:12;;;;;;;;;;;4.10;99.90;;;;;;5070421;28;19920;-75
2022/01/20 01:25:37;;;;;;;;;;;4.00;99.90;;;;;;5070122;28;20385;-75
2022/01/20 01:28:03;;;;;;;10.77;1.20;;;4.00;99.90;;;;;;5069639;28;19925;-75
2022/01/20 01:33:13;;;;;;;;;;;3.80;99.90;;;;;;5070095;28;20522;-75
2022/01/20 01:35:41;;;;;;;;;;;3.80;99.90;;;;;;5069892;28;19974;-75
2022/01/20 01:40:34;;;;;;;;;;;3.70;99.90;;;;;;5070069;28;19975;-75
2022/01/20 01:43:02;;;;;;;;;;;3.70;99.90;;;;;;5052802;28;19967;-76
2022/01/20 01:45:30;;;;;;;;;;;3.80;99.90;;;;;;5069949;28;19979;-75
2022/01/20 01:47:56;;;;;;;;;;;3.80;99.90;;;;;;5052146;28;19921;-77
2022/01/20 01:50:22;;;;;;;;;;;3.90;99.90;;;;;;5069859;28;19920;-75
2022/01/20 01:52:47;;;;;;;;;;;4.00;99.90;;;;;;5052756;28;20355;-75
2022/01/20 01:55:13;;;;;;;;;;;4.10;99.90;;;;;;5069525;28;19928;-75
2022/01/20 01:57:39;;;;;;;;;;;4.20;99.90;;;;;;5069885;28;20552;-75
2022/01/20 02:00:05;;;;;;;;;;;4.20;99.90;;;;;;5069775;28;20394;-75
2022/01/20 02:02:31;;;;;;;;;;;4.20;99.90;;;;;;5069631;28;20036;-75
2022/01/20 02:04:56;;;;;;;;;;;4.10;99.90;;;;;;5052796;28;19971;-75
2022/01/20 02:20:36;;;;;;;;;;;4.00;99.90;;;;;;5069492;28;20011;-75
2022/01/20 02:23:02;;;;;;;;;;;4.00;99.90;;;;;;5069199;28;20438;-75
2022/01/20 02:25:30;;;;;;;;;;;3.90;99.90;;;;;;5068423;28;19928;-75
2022/01/20 02:27:56;;;;;;;;;;;3.80;99.90;;;;;;5069290;28;19932;-76
2022/01/20 02:30:23;;;;;;;;;;;3.80;99.90;;;;;;5069079;28;19920;-75
2022/01/20 02:32:53;;;;;;;;;;;3.70;99.90;;;;;;5068838;28;19924;-76
2022/01/20 02:35:18;;;;;;;;;;;3.70;99.90;;;;;;5062025;28;19920;-75
2022/01/20 02:37:47;;;;;;;;;;;3.80;99.90;;;;;;5069149;28;19931;-75
2022/01/20 02:45:41;;;;;;;19.25;3.80;;;3.80;99.90;;;;;;5068053;28;19931;-76
2022/01/20 02:48:07;;;;;;;20.77;2.17;;;3.80;99.90;;;;;;5068450;28;20131;-75
2022/01/20 02:50:32;;;;;;;21.33;3.17;;;3.80;99.90;;;;;;5068590;28;20046;-76
2022/01/20 02:52:58;;;;;;;23.35;3.33;;;3.70;99.90;;;;;;5067788;28;20487;-75
2022/01/20 02:55:24;;;;;;;25.07;4.30;;;3.70;99.90;;;;;;5067114;28;20447;-76
2022/01/20 02:57:49;;;;;;;29.23;5.33;;;3.70;99.90;;;;;;5050224;28;20522;-75
2022/01/20 03:00:16;;;;;;;30.15;6.13;;;3.70;99.90;;;;;;5065571;28;20438;-76
2022/01/20 03:02:42;;;;;;;27.83;5.90;;;3.80;99.90;;;;;;5066847;28;20403;-75
2022/01/20 03:05:10;;;;;;;28.42;5.25;;;3.90;99.90;;;;;;5051463;28;20127;-76
2022/01/20 03:07:37;;;;;;;27.40;4.03;;;4.00;99.90;;;;;;5069028;28;20041;-75
2022/01/20 03:10:06;;;;;;;19.75;3.15;;;4.00;99.90;;;;;;5068046;28;20572;-76
2022/01/20 03:12:33;;;;;;;15.75;2.67;;;4.00;99.90;;;;;;5068034;28;20079;-76
2022/01/20 03:14:58;;;;;;;;;;;4.00;99.90;;;;;;5052075;28;20070;-76
2022/01/20 03:17:24;;;;;;;;;;;4.00;99.90;;;;;;5068578;28;19925;-76
2022/01/20 03:19:49;;;;;;;;;;;4.00;99.90;;;;;;5051750;28;20023;-75
2022/01/20 03:22:15;;;;;;;;;;;4.00;99.90;;;;;;5052285;28;19977;-76
2022/01/20 03:24:40;;;;;;;;;;;4.00;99.90;;;;;;5068497;28;20443;-76
2022/01/20 03:27:06;;;;;;;;;;;4.00;99.90;;;;;;5051535;28;19921;-75
2022/01/20 03:29:32;;;;;;;;;;;4.10;99.90;;;;;;5068325;28;19927;-75
2022/01/20 03:31:57;;;;;;;;;;;4.10;99.90;;;;;;5051847;28;19927;-75
2022/01/20 03:34:23;;;;;;;18.38;2.28;;;4.20;99.90;;;;;;5067965;28;19920;-75
2022/01/20 03:36:49;;;;;;;21.20;3.28;;;4.20;99.90;;;;;;5068781;28;20133;-75
2022/01/20 03:39:15;;;;;;;17.25;3.05;;;4.20;99.90;;;;;;5066607;28;20434;-76
2022/01/20 03:41:41;;;;;;;16.77;2.90;;;4.20;99.90;;;;;;5066368;28;20414;-75
2022/01/20 03:44:07;;;;;;;11.82;2.03;;;4.20;99.90;;;;;;5067331;28;20036;-75
2022/01/20 03:46:33;;;;;;;15.70;1.95;;;4.20;99.90;;;;;;5067857;28;20044;-75
2022/01/20 03:49:26;;;;;;;10.13;1.35;;;4.20;99.90;;;;;;5067800;28;20048;-75
2022/01/20 03:51:52;;;;;;;12.77;1.92;;;4.20;99.90;;;;;;5067651;28;20044;-75
2022/01/20 03:54:18;;;;;;;18.05;1.90;;;4.20;99.90;;;;;;5066876;28;20052;-75
2022/01/20 03:56:43;;;;;;;16.15;2.25;;;4.10;99.90;;;;;;5066442;28;20044;-75
2022/01/20 03:59:09;;;;;;;11.10;2.35;;;4.20;99.90;;;;;;5066447;28;20036;-75
2022/01/20 04:01:35;;;;;;;14.93;2.53;;;4.20;99.90;;;;;;5066817;28;20486;-76
2022/01/20 04:04:01;;;;;;;16.40;3.20;;;4.20;99.90;;;;;;5067019;28;20040;-75
2022/01/20 04:06:28;;;;;;;18.92;2.75;;;4.20;99.90;;;;;;5050017;28;20055;-75
2022/01/20 04:08:54;;;;;;;;;;;4.20;99.90;;;;;;5067062;28;20586;-76
2022/01/20 04:11:22;;;;;;;12.93;2.47;;;4.10;99.90;;;;;;5069036;28;19927;-76
2022/01/20 04:13:48;;;;;;;;;;;4.10;99.90;;;;;;5070502;28;20063;-75
2022/01/20 04:16:23;;;;;;;20.75;2.83;;;4.10;99.90;;;;;;5053782;28;20451;-75
2022/01/20 04:18:53;;;;;;;17.65;2.65;;;4.00;99.90;;;;;;5070334;28;20056;-75
2022/01/20 04:21:21;;;;;;;15.85;2.53;;;3.90;99.90;;;;;;5069674;28;20303;-76
2022/01/20 04:23:47;;;;;;;19.15;2.65;;;3.90;99.90;;;;;;5069872;28;20047;-75
2022/01/20 04:26:13;;;;;;;15.43;2.55;;;3.90;99.90;;;;;;5053516;28;20052;-75
2022/01/20 04:28:39;;;;;;;20.08;2.90;;;3.90;99.90;;;;;;5069391;28;20041;-75
2022/01/20 04:31:04;;;;;;;21.30;3.15;;;3.80;99.90;;;;;;5069760;28;20045;-76
2022/01/20 04:33:30;;;;;;;19.85;3.65;;;3.90;99.90;;;;;;5069775;28;20138;-75
2022/01/20 04:35:56;;;;;;;18.15;2.92;;;3.90;99.90;;;;;;5052800;28;20076;-76
2022/01/20 04:38:21;;;;;;;22.77;4.05;;;3.90;99.90;;;;;;5069885;28;20046;-76
2022/01/20 04:40:47;;;;;;;24.77;4.75;;;3.80;99.90;;;;;;5068529;28;20396;-75
2022/01/20 04:43:13;;;;;;;20.58;3.50;;;3.70;99.90;;;;;;5069671;28;20410;-76
2022/01/20 04:45:52;;;;;;;15.82;2.25;;;3.60;99.90;;;;;;5069896;28;20053;-75
2022/01/20 04:48:26;;;;;;;13.27;2.30;;;3.50;99.90;;;;;;5069453;28;20500;-76
2022/01/20 04:59:04;;;;;;;18.85;2.35;;;3.10;99.90;;;;;;5069327;28;20140;-75
2022/01/20 05:01:30;;;;;;;19.83;2.70;;;3.10;99.90;;;;;;5052663;28;20131;-76
2022/01/20 05:03:57;;;;;;;;;;;3.10;99.90;;;;;;5069540;28;20079;-76
2022/01/20 05:06:22;;;;;;;;;;;3.10;99.90;;;;;;5053257;28;19920;-76
2022/01/20 05:08:49;;;;;;;13.52;2.30;;;3.00;99.90;;;;;;5053234;28;19924;-76
2022/01/20 05:11:16;;;;;;;17.58;2.85;;;2.90;99.90;;;;;;5070588;28;20465;-76
2022/01/20 05:13:41;;;;;;;16.80;2.75;;;2.80;99.90;;;;;;5069324;28;20090;-75
2022/01/20 05:16:08;;;;;;;15.43;2.78;;;2.80;99.90;;;;;;5070221;28;20483;-76
2022/01/20 05:18:34;;;;;;;20.23;2.90;;;2.80;99.90;;;;;;5069893;28;20128;-75
2022/01/20 05:21:00;;;;;;;17.83;2.78;;;2.80;99.90;;;;;;5069806;28;20053;-76
2022/01/20 05:23:26;;;;;;;21.50;2.88;;;2.70;99.90;;;;;;5069066;28;20033;-76
2022/01/20 05:25:52;;;;;;;18.30;3.50;;;2.80;99.90;;;;;;5069456;28;20619;-76
2022/01/20 05:28:17;;;;;;;12.25;2.13;;;2.80;99.90;;;;;;5069846;28;20102;-76
2022/01/20 05:30:43;;;;;;;11.35;2.08;;;2.90;99.90;;;;;;5069384;28;20449;-76
2022/01/20 05:33:09;;;;;;;13.40;2.25;;;2.70;99.90;;;;;;5052687;28;20087;-76
2022/01/20 05:35:35;;;;;;;12.75;2.15;;;2.60;99.90;;;;;;5071011;28;20044;-75
2022/01/20 05:38:01;;;;;;;10.30;1.55;;;2.50;99.90;;;;;;5071018;28;20394;-76
2022/01/20 05:40:27;;;;;;;7.65;1.23;;;2.40;99.90;;;;;;5070416;28;20044;-76
2022/01/20 05:42:53;;;;;;;8.18;1.10;;;2.30;99.90;;;;;;5070947;28;20037;-76
2022/01/20 05:45:20;;;;;;;10.23;1.98;;;2.30;99.90;;;;;;5068151;28;20400;-76
2022/01/20 05:47:47;;;;;;;13.38;1.33;;;2.30;99.90;;;;;;5070841;28;20048;-76
2022/01/20 05:50:20;;;;;;;13.57;2.55;;;2.30;99.90;;;;;;5069348;28;20102;-76
2022/01/20 05:52:46;;;;;;;14.27;2.05;;;2.40;99.90;;;;;;5069318;28;20048;-76
2022/01/20 05:55:14;;;;;;;19.40;2.67;;;2.40;99.90;;;;;;5069087;28;20093;-75
2022/01/20 05:57:43;;;;;;;18.85;2.40;;;2.50;99.90;;;;;;5068799;28;20048;-76
2022/01/20 06:00:13;;;;;;;20.23;2.83;;;2.50;99.90;;;;;;5070458;28;20047;-76
2022/01/20 06:05:24;;;;;;;19.20;3.17;;;2.70;99.90;;;;;;5069324;28;20049;-76
2022/01/20 06:07:49;;;;;;;21.83;3.65;;;2.80;99.90;;;;;;5070049;28;20040;-76
2022/01/20 06:10:15;;;;;;;19.48;3.65;;;2.80;99.90;;;;;;5068787;28;20135;-76
2022/01/20 06:12:41;;;;;;;20.90;2.95;;;2.80;99.90;;;;;;5068868;28;20040;-76
2022/01/20 06:15:07;;;;;;;17.75;3.55;;;2.80;99.90;;;;;;5070152;28;20048;-76
2022/01/20 06:17:36;;;;;;;21.90;3.40;;;2.80;99.90;;;;;;5068825;28;20868;-76
2022/01/20 06:20:04;;;;;;;16.40;2.70;;;2.80;99.90;;;;;;5068703;28;20044;-76
2022/01/20 06:22:30;;;;;;;12.57;1.70;;;2.90;99.90;;;;;;5069019;28;20036;-76
2022/01/20 06:24:56;;;;;;;16.90;2.15;;;2.90;99.90;;;;;;5068326;28;20055;-76
2022/01/20 06:27:21;;;;;;;14.23;2.50;;;2.90;99.90;;;;;;5068745;28;20044;-76
2022/01/20 06:29:47;;;;;;;23.35;3.22;;;2.90;99.90;;;;;;5068311;28;20041;-76
2022/01/20 06:32:12;;;;;;;15.65;2.67;;;2.90;99.90;;;;;;5068661;28;20059;-76
2022/01/20 06:34:38;;;;;;;15.48;2.63;;;2.90;99.90;;;;;;5068336;28;20037;-76
2022/01/20 06:37:04;;;;;;;18.73;2.83;;;2.90;99.90;;;;;;5067911;28;20045;-76
2022/01/20 06:39:29;;;;;;;13.35;2.05;;;3.00;99.90;;;;;;5068623;28;20037;-76
2022/01/20 06:41:55;;;;;;;14.40;2.83;;;3.00;99.90;;;;;;5052201;28;20963;-76
2022/01/20 06:44:21;;;;;;;15.05;2.95;;;3.00;99.90;;;;;;5068128;28;20495;-76
2022/01/20 06:46:48;;;;;;;16.83;2.47;;;3.00;99.90;;;;;;5068582;28;20041;-76
2022/01/20 06:49:16;;;;;;;17.48;2.47;;;3.10;99.90;;;;;;5051925;28;20045;-76
2022/01/20 06:51:41;;;;;;;19.83;3.67;;;3.10;99.90;;;;;;5067997;28;20048;-76
2022/01/20 06:54:07;;;;;;;12.25;2.13;;;3.10;99.90;;;;;;5068208;28;20053;-76
2022/01/20 06:56:33;;;;;;;5.43;0.70;;;2.90;99.90;;;;;;5068430;28;20044;-76
2022/01/20 06:58:58;;;;;;;;;;;2.60;99.90;;;;;;5068953;28;20487;-75
2022/01/20 07:01:24;;;;;;;6.53;1.00;;;2.40;99.90;;;;;;5069155;28;19925;-74
2022/01/20 07:03:50;;;;;;;8.63;1.27;;;2.30;99.90;;;;;;5069629;28;20040;-74
2022/01/20 07:06:15;;;;;;;8.20;1.85;;;2.30;99.90;;;;;;5067318;28;20052;-75
2022/01/20 07:08:41;;;;;;;12.35;1.40;;;2.30;99.90;;;;;;5054862;28;20047;-75
2022/01/20 07:11:06;;;;;;;21.10;2.75;;;2.30;99.90;;;;;;5068054;28;20052;-75
2022/01/20 07:13:32;;;;;;;15.63;2.03;;;2.30;99.90;;;;;;5068335;28;20463;-75
2022/01/20 07:15:58;;;;;;;16.27;2.35;;;2.30;99.90;;;;;;5067742;28;20040;-75
2022/01/20 07:18:23;;;;;;;14.15;2.35;;;2.30;99.90;;;;;;5068405;28;20048;-76
2022/01/20 07:20:49;;;;;;;10.63;1.65;;;2.40;99.90;;;;;;5068065;28;20040;-75
2022/01/20 07:23:15;;;;;;;16.50;2.45;;;2.50;99.90;;;;;;5068100;28;20116;-75
2022/01/20 07:25:40;;;;;;;14.88;2.65;;;2.60;99.90;;;;;;5051161;28;20118;-75
2022/01/20 07:28:06;;;;;;;18.85;2.47;;;2.60;99.90;;;;;;5068445;28;20052;-75
2022/01/20 07:30:31;;;;;;;15.80;2.70;;;2.70;99.90;;;;;;5068873;28;20130;-76
2022/01/20 07:33:02;;;;;;;17.20;3.55;;;2.80;99.90;;;;;;5067996;28;20052;-76
2022/01/20 07:35:27;;;;;;;23.83;5.13;;;2.80;99.90;;;;;;5051451;28;20051;-76
2022/01/20 07:37:53;;;;;;;21.08;2.88;;;2.80;99.90;;;;;;5069656;28;20037;-76
2022/01/20 07:40:18;;;;;;;22.40;3.03;;;2.80;99.90;;;;;;5069400;28;20040;-76
2022/01/20 07:42:44;;;;;;;25.17;3.47;;;2.70;99.90;;;;;;5067589;28;20766;-76
2022/01/20 07:45:10;;;;;;;14.98;2.38;;;2.70;99.90;;;;;;5068548;28;20042;-76
2022/01/20 07:47:36;;;;;;;21.33;2.53;;;2.70;99.90;;;;;;5071779;28;20094;-76
2022/01/20 07:50:02;;;;;;;15.95;2.10;;;2.70;99.90;;;;;;5071839;28;20044;-76
2022/01/20 07:52:28;;;;;;;15.30;2.30;;;2.80;99.90;;;;;;5071498;28;20040;-76
2022/01/20 07:54:53;;;;;;;14.75;2.05;;;2.80;99.90;;;;;;5071813;28;20036;-76
2022/01/20 07:57:19;;;;;;;14.77;1.88;;;2.80;99.90;;;;;;5073059;28;20041;-76
2022/01/20 07:59:45;;;;;;;19.48;2.13;;;2.80;99.90;;;;;;5054792;28;20048;-76
2022/01/20 08:02:11;;;;;;;19.08;2.35;;;2.90;99.90;;;;;;5062313;28;20049;-77
2022/01/20 08:04:36;;;;;;;14.38;2.63;;;2.90;99.90;;;;;;5056040;28;20410;-76
2022/01/20 08:07:02;;;;;;;19.52;3.45;;;2.90;99.90;;;;;;5079328;28;20048;-76
2022/01/20 08:09:28;;;;;;;15.65;2.50;;;2.90;99.90;;;;;;5072527;28;20388;-76
2022/01/20 08:11:53;;;;;;;14.70;2.75;;;2.90;99.90;;;;;;5071442;28;20499;-75
2022/01/20 08:14:19;;;;;;;19.13;4.05;;;2.90;99.90;;;;;;5070478;28;20083;-76
2022/01/20 08:16:45;;;;;;;16.33;3.08;;;2.90;99.90;;;;;;5071553;28;20791;-76
2022/01/20 08:19:10;;;;;;;16.25;2.75;;;2.90;99.90;;;;;;5076180;28;20056;-76
2022/01/20 08:21:36;;;;;;;12.60;2.92;;;3.00;99.90;;;;;;5074121;28;20044;-76
2022/01/20 08:24:01;;;;;;;20.03;3.50;;;3.00;99.90;;;;;;5074015;28;20439;-76
2022/01/20 08:26:27;;;;;;;22.63;4.32;;;3.10;99.90;;;;;;5068840;28;20318;-76
2022/01/20 08:28:53;;;;;;;17.20;2.97;;;3.10;99.90;;;;;;5068887;28;20566;-75
2022/01/20 08:31:18;;;;;;;12.98;3.08;;;3.10;99.90;;;;;;5070076;28;20566;-76
2022/01/20 08:33:44;;;;;;;17.50;2.88;;;3.10;99.90;;;;;;5069909;28;20051;-76
2022/01/20 08:36:09;;;;;;;16.42;3.33;;;3.20;99.90;;;;;;5069388;28;20048;-76
2022/01/20 08:38:35;;;;;;;12.23;2.45;;;3.10;99.90;;;;;;5069338;28;20048;-76
2022/01/20 08:41:01;;;;;;;13.80;2.45;;;3.10;99.90;;;;;;5070263;28;20093;-76
2022/01/20 08:43:26;;;;;;;13.50;2.08;;;3.10;99.90;;;;;;5069927;28;20049;-76
2022/01/20 08:45:52;;;;;;;15.48;2.90;;;3.10;99.90;;;;;;5069013;28;20109;-76
2022/01/20 08:48:17;;;;;;;16.95;2.35;;;3.20;99.90;;;;;;5064788;28;20039;-76
2022/01/20 08:50:44;;;;;;;13.88;2.35;;;3.20;99.90;;;;;;5050552;28;20476;-76
2022/01/20 08:53:11;;;;;;;17.92;2.67;;;3.20;99.90;;;;;;5049957;28;20468;-76
2022/01/20 08:55:37;;;;;;;15.90;2.45;;;3.20;99.90;;;;;;5049853;28;20045;-76
2022/01/20 08:58:04;;;;;;;13.05;1.90;;;3.20;99.90;;;;;;5051115;28;20044;-76
2022/01/20 09:00:32;;;;;;;17.35;2.60;;;3.30;99.90;;;;;;5049518;28;20044;-76
2022/01/20 09:02:58;;;;;;;15.60;2.47;;;3.30;99.90;;;;;;5065119;28;20077;-76
2022/01/20 09:05:25;;;;;;;12.32;1.77;;;3.40;99.90;;;;;;5069893;28;20411;-76
2022/01/20 09:07:51;;;;;;;19.58;2.55;;;3.40;99.90;;;;;;5069308;28;20211;-76
2022/01/20 09:10:20;;;;;;;14.20;2.42;;;3.50;99.90;;;;;;5069265;28;20045;-76
2022/01/20 09:15:28;;;;;;;13.80;2.33;;;3.60;99.90;;;;;;5069448;28;20047;-77
2022/01/20 09:17:56;;;;;;;13.45;2.17;;;3.60;99.90;;;;;;5065722;28;20057;-76
2022/01/20 09:20:22;;;;;;;13.45;2.30;;;3.70;99.90;;;;;;5046154;28;20447;-76
2022/01/20 09:22:48;;;;;;;17.02;1.95;;;3.80;99.90;;;;;;5061670;28;20120;-76
2022/01/20 09:25:15;;;;;;;10.27;1.65;;;3.90;99.90;;;;;;5049115;28;20056;-77
2022/01/20 09:27:42;;;;;;;15.23;2.40;;;3.90;99.90;;;;;;5049012;28;20037;-76
2022/01/20 09:30:09;;;;;;;19.58;3.38;;;3.80;99.90;;;;;;5049207;28;20037;-76
2022/01/20 09:32:38;;;;;;;12.95;2.67;;;3.70;99.90;;;;;;5048735;28;20099;-76
2022/01/20 09:35:05;;;;;;;13.30;1.63;;;3.60;99.90;;;;;;5051301;28;20052;-76
2022/01/20 09:37:31;;;;;;;9.60;1.90;;;3.40;99.90;;;;;;5068685;28;20526;-76
2022/01/20 09:39:56;;;;;;;7.05;1.55;;;3.30;99.90;;;;;;5070234;28;20079;-76
2022/01/20 09:42:24;;;;;;;8.45;1.52;;;3.20;99.90;;;;;;5069857;28;20090;-76
2022/01/20 09:44:52;;;;;;;4.28;0.80;;;3.20;99.90;;;;;;5070009;28;20048;-76
2022/01/20 09:47:18;;;;;;;7.88;0.77;;;3.30;99.90;;;;;;5070073;28;20045;-76
2022/01/20 09:49:44;;;;;;;5.88;0.80;;;3.40;99.90;;;;;;5068394;28;20657;-76
2022/01/20 09:52:10;;;;;;;5.60;1.00;;;3.40;99.90;;;;;;5068389;28;20161;-76
2022/01/20 09:54:37;;;;;;;4.50;0.90;;;3.50;99.90;;;;;;5068715;28;20090;-76
2022/01/20 09:57:03;;;;;;;7.68;1.50;;;3.60;99.90;;;;;;5068525;28;20049;-76
2022/01/20 09:59:30;;;;;;;7.65;0.88;;;3.70;99.90;;;;;;5068325;28;20384;-75
2022/01/20 10:01:58;;;;;;;8.13;1.35;;;3.90;99.90;;;;;;5062597;28;20049;-74
2022/01/20 10:04:29;;;;;;;10.13;1.15;;;4.00;99.90;;;;;;5048390;28;20053;-75
2022/01/20 10:07:15;;;;;;;12.98;2.45;;;4.00;99.90;;;;;;5047487;28;20869;-75
2022/01/20 10:09:48;;;;;;;11.20;2.67;;;4.00;99.90;;;;;;5047638;28;20525;-75
2022/01/20 10:12:16;;;;;;;14.32;1.85;;;3.90;99.90;;;;;;5048349;28;20048;-75
2022/01/20 10:14:49;;;;;;;13.05;2.25;;;3.90;99.90;;;;;;5031657;28;20044;-76
2022/01/20 10:17:19;;;;;;;18.70;2.75;;;4.00;99.90;;;;;;5049185;28;20041;-75
2022/01/20 10:19:45;;;;;;;13.35;2.17;;;4.10;99.90;;;;;;5047948;28;20053;-76
2022/01/20 10:22:16;;;;;;;21.77;2.67;;;4.20;99.90;;;;;;5049461;28;20045;-76
2022/01/20 10:24:55;;;;;;;12.32;2.25;;;4.30;99.90;;;;;;5050244;28;20406;-76
2022/01/20 10:27:21;;;;;;;15.90;2.35;;;4.50;99.90;;;;;;5051340;28;20040;-76
2022/01/20 10:30:08;;;;;;;15.07;2.88;;;4.60;99.90;;;;;;5050854;28;20049;-76
2022/01/20 10:32:45;;;;;;;22.15;3.67;;;4.60;99.90;;;;;;5051093;28;20136;-76
2022/01/20 10:35:15;;;;;;;17.33;2.75;;;4.70;99.90;;;;;;5051285;28;20125;-75
2022/01/20 10:37:52;;;;;;;14.40;2.60;;;4.60;99.90;;;;;;5050902;28;20136;-76
2022/01/20 10:40:18;;;;;;;16.50;2.88;;;4.60;99.90;;;;;;5034593;28;20036;-76
2022/01/20 10:42:46;;;;;;;12.43;2.30;;;4.50;99.90;;;;;;5050908;28;20052;-76
2022/01/20 10:45:23;;;;;;;9.20;1.83;;;4.50;99.90;;;;;;5050744;28;20437;-76
2022/01/20 10:47:54;;;;;;;8.32;1.77;;;4.50;99.90;;;;;;5049639;28;20420;-76
2022/01/20 10:50:24;;;;;;;8.67;1.10;;;4.80;99.90;;;;;;5049153;28;20951;-76
2022/01/20 10:52:51;;;;;;;6.68;1.13;;;5.50;99.90;;;;;;5049567;28;20435;-76
2022/01/20 10:55:19;;;;;;;5.75;1.08;;;5.50;99.90;;;;;;5067623;28;20396;-76
2022/01/20 10:57:45;;;;;;;6.53;0.90;;;5.40;99.90;;;;;;5049482;28;20403;-76
2022/01/20 11:00:12;;;;;;;7.97;1.45;;;5.30;99.90;;;;;;5043903;28;20423;-76
2022/01/20 11:02:38;;;;;;;11.93;1.70;;;5.10;99.90;;;;;;5041769;28;20473;-76
2022/01/20 11:05:04;;;;;;;11.52;1.83;;;5.00;99.90;;;;;;5049756;28;20404;-76
2022/01/20 11:07:30;;;;;;;14.18;2.28;;;5.10;99.90;;;;;;5049685;28;20404;-76
2022/01/20 11:10:02;;;;;;;16.08;3.05;;;5.30;99.90;;;;;;5049574;28;20809;-76
2022/01/20 11:12:28;;;;;;;15.13;2.80;;;5.60;99.90;;;;;;5066670;28;20407;-76
2022/01/20 11:14:55;;;;;;;;;;;6.20;99.90;;;;;;5051306;28;20057;-76
2022/01/20 11:17:22;;;;;;;;;;;6.80;99.90;;;;;;5069161;28;19927;-76
2022/01/20 11:19:49;;;;;;;13.02;2.13;;;7.20;99.90;;;;;;5017654;28;19950;-77
2022/01/20 11:22:18;;;;;;;;;;;7.70;99.90;;;;;;5073169;28;20076;-76
2022/01/20 11:24:44;;;;;;;;;;;8.10;99.90;;;;;;5054624;28;19972;-77
2022/01/20 11:27:11;;;;;;;;;;;8.60;99.90;;;;;;5072773;28;19924;-77
2022/01/20 11:29:40;;;;;;;;;;;8.80;99.90;;;;;;5072897;28;20309;-76
2022/01/20 11:32:25;;;;;;;;;;;8.00;99.90;;;;;;5073193;28;19920;-76
2022/01/20 11:34:55;;;;;;;;;;;7.10;99.90;;;;;;5071615;28;19920;-76
2022/01/20 11:37:23;;;;;;;;;;;6.30;99.90;;;;;;5071335;28;19928;-76
2022/01/20 11:39:51;;;;;;;;;;;5.80;99.90;;;;;;5071060;28;19927;-76
2022/01/20 11:42:25;;;;;;;;;;;5.80;99.90;;;;;;5071157;28;19921;-76
2022/01/20 11:44:52;;;;;;;10.15;1.17;;;6.60;99.90;;;;;;5071742;28;19924;-76
2022/01/20 11:47:18;;;;;;;8.23;1.10;;;7.50;99.90;;;;;;5056662;28;20568;-76
2022/01/20 11:49:45;;;;;;;8.88;1.67;;;8.00;99.90;;;;;;5069070;28;20056;-76
2022/01/20 11:52:21;;;;;;;10.25;1.70;;;8.30;99.30;;;;;;5061369;28;20052;-76
2022/01/20 11:54:47;;;;;;;12.88;2.10;;;8.30;98.90;;;;;;5056838;28;20053;-74
2022/01/20 11:57:14;;;;;;;;;;;7.80;99.70;;;;;;5069766;28;20098;-74
2022/01/20 11:59:46;;;;;;;15.77;2.30;;;7.50;99.90;;;;;;5069757;28;19924;-74
2022/01/20 12:02:35;;;;;;;14.70;3.22;;;7.10;99.90;;;;;;5070419;28;20375;-74
2022/01/20 12:05:02;;;;;;;;;;;6.80;99.90;;;;;;5071951;28;20047;-74
2022/01/20 12:07:33;;;;;;;16.63;2.97;;;6.60;99.90;;;;;;5070617;28;20268;-74
2022/01/20 12:10:10;;;;;;;;;;;6.30;99.90;;;;;;5070916;28;20131;-74
2022/01/20 12:12:36;;;;;;;;;;;6.10;99.90;;;;;;5070932;28;19927;-74
2022/01/20 12:15:08;;;;;;;;;;;5.80;99.90;;;;;;5070871;28;19927;-74
2022/01/20 12:17:34;;;;;;;;;;;5.70;99.90;;;;;;5070476;28;20019;-74
2022/01/20 12:19:59;;;;;;;;;;;5.80;99.90;;;;;;5070386;28;20015;-74
2022/01/20 12:22:25;;;;;;;;;;;5.90;99.90;;;;;;5071211;28;19978;-74
2022/01/20 12:24:51;;;;;;;;;;;5.90;99.90;;;;;;5070223;28;20355;-77
2022/01/20 12:27:17;;;;;;;;;;;5.70;99.90;;;;;;5055770;28;20298;-76
2022/01/20 12:29:43;;;;;;;;;;;5.70;99.90;;;;;;5050112;28;19921;-76
2022/01/20 12:32:13;;;;;;;;;;;5.70;99.90;;;;;;5064061;28;20370;-76
2022/01/20 12:34:39;;;;;;;;;;;5.70;99.90;;;;;;5053486;28;19955;-76
2022/01/20 12:37:04;;;;;;;;;;;5.80;99.90;;;;;;5070551;28;19967;-76
2022/01/20 12:39:32;;;;;;;;;;;5.90;99.90;;;;;;5069594;28;20340;-76
2022/01/20 12:42:00;;;;;;;;;;;5.90;99.90;;;;;;5070148;28;19925;-76
2022/01/20 12:44:46;;;;;;;;;;;6.00;99.90;;;;;;5054060;28;20337;-76
2022/01/20 12:47:12;;;;;;;;;;;6.20;99.90;;;;;;5069302;28;19920;-76
2022/01/20 12:49:37;;;;;;;;;;;6.40;99.90;;;;;;5071102;28;19926;-76
2022/01/20 12:52:04;;;;;;;;;;;6.50;99.90;;;;;;5070633;28;20295;-76
2022/01/20 12:54:32;;;;;;;;;;;6.40;99.90;;;;;;5070053;28;19931;-76
2022/01/20 12:56:58;;;;;;;;;;;6.10;99.90;;;;;;5070642;28;19920;-76
2022/01/20 12:59:26;;;;;;;;;;;5.90;99.90;;;;;;5070599;28;19921;-75
2022/01/20 13:01:53;;;;;;;;;;;5.70;99.90;;;;;;5071247;28;19967;-75
2022/01/20 13:04:20;;;;;;;;;;;5.60;99.90;;;;;;5071041;28;19943;-75
2022/01/20 13:06:53;;;;;;;;;;;5.50;99.90;;;;;;5076710;28;19932;-75
2022/01/20 13:09:21;;;;;;;;;;;5.40;99.90;;;;;;5091336;28;19924;-76
2022/01/20 13:11:59;;;;;;;;;;;5.20;99.90;;;;;;5073132;28;19927;-76
2022/01/20 13:14:40;;;;;;;;;;;5.30;99.90;;;;;;5075047;28;19956;-75
2022/01/20 13:17:07;;;;;;;;;;;5.30;99.90;;;;;;5070109;28;20286;-76
2022/01/20 13:19:35;;;;;;;;;;;5.40;99.90;;;;;;5069877;28;20283;-76
2022/01/20 13:22:04;;;;;;;;;;;5.40;99.90;;;;;;5067241;28;19920;-76
2022/01/20 13:24:30;;;;;;;;;;;5.50;99.90;;;;;;5069050;28;19920;-76
2022/01/20 13:26:57;;;;;;;;;;;5.70;99.90;;;;;;5068327;28;19974;-76
2022/01/20 13:29:23;;;;;;;;;;;5.70;99.90;;;;;;5069276;28;19920;-76
2022/01/20 13:31:49;;;;;;;;;;;5.70;99.90;;;;;;5069729;28;20343;-76
2022/01/20 13:34:17;;;;;;;;;;;5.80;99.90;;;;;;5069618;28;20227;-76
2022/01/20 13:36:45;;;;;;;;;;;5.80;99.90;;;;;;5070576;28;19997;-76
2022/01/20 13:39:11;;;;;;;;;;;5.90;99.90;;;;;;5069008;28;19924;-76
2022/01/20 13:41:37;;;;;;;;;;;6.00;99.90;;;;;;5068949;28;19920;-76
2022/01/20 13:47:00;;;;;;;;;;;5.90;99.90;;;;;;5068355;28;19931;-76
2022/01/20 13:49:25;;;;;;;;;;;5.80;99.90;;;;;;5066488;28;20309;-76
2022/01/20 13:51:58;;;;;;;;;;;5.70;99.90;;;;;;5051279;28;19924;-76
2022/01/20 13:54:34;;;;;;;;;;;5.70;99.90;;;;;;5065832;28;19927;-76
2022/01/20 13:56:59;;;;;;;;;;;5.80;99.90;;;;;;5069109;28;19921;-76
2022/01/20 13:59:25;;;;;;;;;;;5.90;99.90;;;;;;5068911;28;20425;-76
2022/01/20 14:01:50;;;;;;;;;;;5.90;99.90;;;;;;5068444;28;19924;-76
2022/01/20 14:04:16;;;;;;;;;;;6.00;99.90;;;;;;5068794;28;19924;-76
2022/01/20 14:06:41;;;;;;;;;;;6.00;99.90;;;;;;5052270;28;19921;-76
2022/01/20 14:09:07;;;;;;;;;;;6.00;99.90;;;;;;5051766;28;20007;-76
2022/01/20 14:11:32;;;;;;;;;;;5.60;99.90;;;;;;5066747;28;19926;-75
2022/01/20 14:13:57;;;;;;;;;;;5.40;99.90;;;;;;5068209;28;20015;-75
2022/01/20 14:16:23;;;;;;;;;;;5.10;99.90;;;;;;5068732;28;19925;-76
2022/01/20 14:18:56;;;;;;;;;;;4.90;99.90;;;;;;5069868;28;19920;-76
2022/01/20 14:21:22;;;;;;;;;;;4.70;99.90;;;;;;5068690;28;19920;-75
2022/01/20 14:23:48;;;;;;;16.02;3.03;;;4.60;99.90;;;;;;5067316;28;19943;-76
2022/01/20 14:26:21;;;;;;;16.85;2.38;;;4.50;99.90;;;;;;5067322;28;20056;-75
2022/01/20 14:28:47;;;;;;;13.02;2.30;;;4.50;99.90;;;;;;5067485;28;20098;-76
2022/01/20 14:31:14;;;;;;;14.18;1.58;;;4.40;99.90;;;;;;5067548;28;20445;-76